John Quigg — WDB9828 — position and weather

sailwx.info

Track history (hours):
 
Tides and Currents Weather Stations Pressure Air Temp Water Temp Dewpoint Dewpoint Depression Visibility Wind Speed Wind Dir Waves Ship Positions

John Quigg

Owner: Harley Marine Services, Inc, Seattle, WA. More information available from US FCC via Universal Licensing System and Coast Guard Vessel Documentation Center.

Last reported at 2017-Apr-30 19:41 UTC. Time now 2017-Apr-30 20:51 UTC.
Position N 33°44' W 118°16'.

Length 27 m.

MMSI: 365934954.

Date/timePositionNaut miles runAvg speedWind from/ knotsBaromVisibWave heightAir tempDewpointWater temp
2017-Apr-30 19:41N 33°44' W 118°16'0 0.0
2017-Apr-30 19:29N 33°44' W 118°16'0 0.0
2017-Apr-30 18:41N 33°44' W 118°16'0 0.0
2017-Apr-30 18:29N 33°44' W 118°16'0 0.0
2017-Apr-30 17:57N 33°44' W 118°16'0 0.0
2017-Apr-30 17:30N 33°44' W 118°16'0 0.0
2017-Apr-30 15:22N 33°44' W 118°16'0 0.0
2017-Apr-30 14:59N 33°44' W 118°16'0 0.0
2017-Apr-30 14:25N 33°44' W 118°16'0 0.0
2017-Apr-30 13:30N 33°44' W 118°16'0 0.0
2017-Apr-30 12:59N 33°44' W 118°16'0 0.0
2017-Apr-30 12:30N 33°44' W 118°16'0 0.6
2017-Apr-30 12:00N 33°44' W 118°15'1 1.2
2017-Apr-30 11:30N 33°43' W 118°16'1 2.1
2017-Apr-30 11:00N 33°43' W 118°15'1 2.7
2017-Apr-30 10:30N 33°44' W 118°16'0 0.0
2017-Apr-30 10:00N 33°44' W 118°16'0 0.0
2017-Apr-30 09:30N 33°44' W 118°16'0 0.0
2017-Apr-30 09:00N 33°44' W 118°16'0 0.0
2017-Apr-30 08:30N 33°44' W 118°16'0 0.0
2017-Apr-30 08:00N 33°44' W 118°16'0 0.0
2017-Apr-30 07:30N 33°44' W 118°16'0 0.0
2017-Apr-30 07:00N 33°44' W 118°16'0 0.0
2017-Apr-30 06:30N 33°44' W 118°16'0 0.0
2017-Apr-30 06:00N 33°44' W 118°16'0 0.0
2017-Apr-30 05:29N 33°44' W 118°16'0 0.0
2017-Apr-30 04:59N 33°44' W 118°16'0 0.0
2017-Apr-30 04:28N 33°44' W 118°16'0 0.0
2017-Apr-30 02:52N 33°44' W 118°16'0 0.0
2017-Apr-30 02:30N 33°44' W 118°16'0 0.0
2017-Apr-30 02:00N 33°44' W 118°16'3 4.3
2017-Apr-30 01:25N 33°44' W 118°13'3 5.5
2017-Apr-30 00:57N 33°44' W 118°16'0 0.0
2017-Apr-28 09:42N 33°44' W 118°16'0 0.0
2017-Apr-28 09:24N 33°44' W 118°16'0 0.0
2017-Apr-28 09:00N 33°44' W 118°16'0 0.0
2017-Apr-28 08:30N 33°44' W 118°16'0 0.0
2017-Apr-28 08:00N 33°44' W 118°16'0 0.0
2017-Apr-28 07:23N 33°44' W 118°16'0 0.0
2017-Apr-28 07:00N 33°44' W 118°16'0 0.0
2017-Apr-28 06:29N 33°44' W 118°16'0 0.0
2017-Apr-28 05:59N 33°44' W 118°16'0 0.0
2017-Apr-28 05:05N 33°44' W 118°16'0 0.1
2017-Apr-28 05:00N 33°44' W 118°16'0 0.0
2017-Apr-28 03:50N 33°44' W 118°16'0 0.0
2017-Apr-28 03:29N 33°44' W 118°16'0 0.0
2017-Apr-28 02:59N 33°44' W 118°16'0 0.0
2017-Apr-28 02:25N 33°44' W 118°16'0 0.0
2017-Apr-28 01:50N 33°44' W 118°16'0 0.0
2017-Apr-28 01:27N 33°44' W 118°16'0 0.0
2017-Apr-28 01:00N 33°44' W 118°16'0 0.2
2017-Apr-28 00:29N 33°44' W 118°16'0 0.6
2017-Apr-27 23:52N 33°44' W 118°15'0 0.7
2017-Apr-27 23:14N 33°44' W 118°16'0 0.0
2017-Apr-27 23:00N 33°44' W 118°16'3 0.2
2017-Apr-27 07:10N 33°45' W 118°13'0 0.0
2017-Apr-27 06:59N 33°45' W 118°13'1 1.6
2017-Apr-27 06:27N 33°45' W 118°13'2 4.1
2017-Apr-27 06:00N 33°43' W 118°11'0 0.4
2017-Apr-27 05:28N 33°44' W 118°11'4 3.5
2017-Apr-27 04:28N 33°44' W 118°16'0 0.3
2017-Apr-27 04:00N 33°44' W 118°16'0 0.0
2017-Apr-27 03:30N 33°44' W 118°16'0 0.0
2017-Apr-27 03:00N 33°44' W 118°16'0 0.0
2017-Apr-27 02:02N 33°44' W 118°16'0 0.0
2017-Apr-27 01:53N 33°44' W 118°16'0 0.0
2017-Apr-27 01:30N 33°44' W 118°16'0 0.0
2017-Apr-27 01:00N 33°44' W 118°16'0 0.0
2017-Apr-27 00:30N 33°44' W 118°16'0 0.0
2017-Apr-27 00:00N 33°44' W 118°16'1 2.3
2017-Apr-26 23:29N 33°45' W 118°16'1 1.5
2017-Apr-26 22:58N 33°46' W 118°16'2 4.5
2017-Apr-26 22:30N 33°43' W 118°16'1 2.9
2017-Apr-26 22:00N 33°43' W 118°15'1 2.3
2017-Apr-26 21:25N 33°44' W 118°16'0 0.0
2017-Apr-26 21:00N 33°44' W 118°16'0 0.0
2017-Apr-26 20:29N 33°44' W 118°16'0 0.0
2017-Apr-26 19:56N 33°44' W 118°16'0 0.0
2017-Apr-26 19:30N 33°44' W 118°16'0 0.0
2017-Apr-26 19:00N 33°44' W 118°16'0 0.0
2017-Apr-26 18:25N 33°44' W 118°16'0 0.0
2017-Apr-26 17:51N 33°44' W 118°16'0 0.0
2017-Apr-26 17:30N 33°44' W 118°16'0 0.0
2017-Apr-26 16:41N 33°44' W 118°16'0 0.0
2017-Apr-26 15:22N 33°44' W 118°16'0 0.0
2017-Apr-26 14:07N 33°44' W 118°16'3 2.4
2017-Apr-26 12:41N 33°44' W 118°12'0 0.8
2017-Apr-26 12:26N 33°44' W 118°12'0 0.1
2017-Apr-26 11:59N 33°44' W 118°12'3 1.5
2017-Apr-26 09:39N 33°44' W 118°16'0 0.0
2017-Apr-26 09:29N 33°44' W 118°16'0 0.0
2017-Apr-26 09:00N 33°44' W 118°16'0 0.0
2017-Apr-26 08:10N 33°44' W 118°16'0 0.0
2017-Apr-26 05:54N 33°44' W 118°16'0 0.0
2017-Apr-26 05:19N 33°44' W 118°16'0 0.0
2017-Apr-26 04:49N 33°44' W 118°16'0 0.0
2017-Apr-26 01:20N 33°44' W 118°16'0 0.0
2017-Apr-26 00:54N 33°44' W 118°16'0 0.0
2017-Apr-26 00:30N 33°44' W 118°16'0 0.0
2017-Apr-26 00:00N 33°44' W 118°16'0 0.0
2017-Apr-25 23:30N 33°44' W 118°16'0 0.0
2017-Apr-25 23:00N 33°44' W 118°16'0 0.0
2017-Apr-25 22:30N 33°44' W 118°16'0 0.0
2017-Apr-25 22:00N 33°44' W 118°16'0 0.0
2017-Apr-25 21:30N 33°44' W 118°16'0 0.0
2017-Apr-25 21:00N 33°44' W 118°16'0 0.0
2017-Apr-25 20:29N 33°44' W 118°16'0 0.0
2017-Apr-25 20:00N 33°44' W 118°16'0 0.0
2017-Apr-25 19:29N 33°44' W 118°16'0 0.0
2017-Apr-25 03:34N 33°44' W 118°16'0 0.0
2017-Apr-25 03:22N 33°44' W 118°16'0 0.0
2017-Apr-24 03:28N 33°44' W 118°16'0 0.0
2017-Apr-24 03:00N 33°44' W 118°16'0 0.0
2017-Apr-24 02:28N 33°44' W 118°16'0 0.0
2017-Apr-24 01:42N 33°44' W 118°16'0 0.0
2017-Apr-24 01:30N 33°44' W 118°16'1 1.1
2017-Apr-24 01:00N 33°43' W 118°16'1 1.4
2017-Apr-24 00:30N 33°44' W 118°15'0 0.6
2017-Apr-24 00:00N 33°44' W 118°16'0 0.0
2017-Apr-23 23:30N 33°44' W 118°16'0 0.0
2017-Apr-23 23:00N 33°44' W 118°16'0 0.0
2017-Apr-23 22:26N 33°44' W 118°16'0 0.0
2017-Apr-23 21:23N 33°44' W 118°16'0 0.0
2017-Apr-23 19:05N 33°44' W 118°16'0 0.0
2017-Apr-23 19:00N 33°44' W 118°16'0 0.0
2017-Apr-23 18:21N 33°44' W 118°16'0 0.0
2017-Apr-23 17:04N 33°44' W 118°16'0 0.0
2017-Apr-23 17:00N 33°44' W 118°16'0 0.0
2017-Apr-23 16:28N 33°44' W 118°16'0 0.0
2017-Apr-23 15:53N 33°44' W 118°16'0 0.0
2017-Apr-23 15:30N 33°44' W 118°16'0 0.0
2017-Apr-23 14:57N 33°44' W 118°16'0 0.0
2017-Apr-23 14:00N 33°44' W 118°16'0 0.0
2017-Apr-23 13:30N 33°44' W 118°16'0 0.0
2017-Apr-23 12:58N 33°44' W 118°16'0 0.0
2017-Apr-23 12:30N 33°44' W 118°16'0 0.0
2017-Apr-23 11:57N 33°44' W 118°16'0 0.0
2017-Apr-23 11:30N 33°44' W 118°16'0 0.0
2017-Apr-23 10:47N 33°44' W 118°16'0 0.0
2017-Apr-23 10:30N 33°44' W 118°16'0 0.0
2017-Apr-23 10:00N 33°44' W 118°16'0 0.0
2017-Apr-23 09:30N 33°44' W 118°16'0 0.0
2017-Apr-23 09:00N 33°44' W 118°16'0 0.0
2017-Apr-23 08:30N 33°44' W 118°16'0 0.0
2017-Apr-23 08:00N 33°44' W 118°16'0 0.0
2017-Apr-23 07:30N 33°44' W 118°16'0 0.0
2017-Apr-23 07:00N 33°44' W 118°16'0 0.0
2017-Apr-23 06:30N 33°44' W 118°16'0 0.0
2017-Apr-23 06:00N 33°44' W 118°16'0 0.0
2017-Apr-23 05:30N 33°44' W 118°16'0 0.0
2017-Apr-23 05:00N 33°44' W 118°16'0 0.0
2017-Apr-23 04:30N 33°44' W 118°16'0 0.0
2017-Apr-23 04:00N 33°44' W 118°16'0 0.0
2017-Apr-23 03:30N 33°44' W 118°16'0 0.0
2017-Apr-23 03:00N 33°44' W 118°16'0 0.0
2017-Apr-23 02:30N 33°44' W 118°16'0 0.0
2017-Apr-23 02:00N 33°44' W 118°16'0 0.0
2017-Apr-23 01:30N 33°44' W 118°16'0 0.0
2017-Apr-23 01:00N 33°44' W 118°16'0 0.0
2017-Apr-23 00:30N 33°44' W 118°16'0 0.0
2017-Apr-23 00:00N 33°44' W 118°16'0 0.0
2017-Apr-22 23:30N 33°44' W 118°16'0 0.0
2017-Apr-22 23:00N 33°44' W 118°16'0 0.0
2017-Apr-22 22:30N 33°44' W 118°16'0 0.0
2017-Apr-22 22:00N 33°44' W 118°16'0 0.0
2017-Apr-22 21:30N 33°44' W 118°16'0 0.0
2017-Apr-22 21:00N 33°44' W 118°16'0 0.0
2017-Apr-22 20:30N 33°44' W 118°16'0 0.0
2017-Apr-22 20:00N 33°44' W 118°16'0 0.0
2017-Apr-22 19:30N 33°44' W 118°16'0 0.0
2017-Apr-22 19:00N 33°44' W 118°16'0 0.0
2017-Apr-22 18:30N 33°44' W 118°16'0 0.0
2017-Apr-22 18:00N 33°44' W 118°16'0 0.0
2017-Apr-22 17:30N 33°44' W 118°16'0 0.0
2017-Apr-22 17:00N 33°44' W 118°16'0 0.0
2017-Apr-22 16:30N 33°44' W 118°16'0 0.0
2017-Apr-22 16:00N 33°44' W 118°16'0 0.0
2017-Apr-22 15:30N 33°44' W 118°16'0 0.0
2017-Apr-22 15:00N 33°44' W 118°16'1 1.3
2017-Apr-22 14:30N 33°44' W 118°16'2 1.6
2017-Apr-22 13:30N 33°45' W 118°16'0 0.5
2017-Apr-22 13:00N 33°45' W 118°16'2 3.4
2017-Apr-22 12:30N 33°43' W 118°16'2 4.0
2017-Apr-22 12:00N 33°45' W 118°16'0 0.2
2017-Apr-22 11:30N 33°45' W 118°16'1 1.9
2017-Apr-22 11:00N 33°45' W 118°16'1 2.0
2017-Apr-22 10:30N 33°44' W 118°16'0 0.0
2017-Apr-22 10:00N 33°44' W 118°16'0 0.0
2017-Apr-22 09:30N 33°44' W 118°16'0 0.0
2017-Apr-22 09:00N 33°44' W 118°16'0 0.0
2017-Apr-22 08:30N 33°44' W 118°16'0 0.0
2017-Apr-22 07:51N 33°44' W 118°16'0 0.0
2017-Apr-22 07:30N 33°44' W 118°16'0 0.0
2017-Apr-22 07:00N 33°44' W 118°16'0 0.0
2017-Apr-22 06:30N 33°44' W 118°16'0 0.0
2017-Apr-22 06:00N 33°44' W 118°16'0 0.0
2017-Apr-22 05:30N 33°44' W 118°16'0 0.0
2017-Apr-22 05:00N 33°44' W 118°16'0 0.0
2017-Apr-22 04:30N 33°44' W 118°16'0 0.0
2017-Apr-22 04:00N 33°44' W 118°16'0 0.0
2017-Apr-22 03:29N 33°44' W 118°16'0 0.0
2017-Apr-22 02:42N 33°44' W 118°16'0 0.0
2017-Apr-22 02:25N 33°44' W 118°16'0 0.0
2017-Apr-22 02:00N 33°44' W 118°16'1 2.4
2017-Apr-22 01:30N 33°45' W 118°16'0 0.9
2017-Apr-22 00:59N 33°45' W 118°16'0 0.6
2017-Apr-22 00:30N 33°45' W 118°16'0 0.1
2017-Apr-21 21:43N 33°45' W 118°16'1 4.8
2017-Apr-21 21:30N 33°44' W 118°16'2 3.6
2017-Apr-21 21:00N 33°43' W 118°15'1 2.6
2017-Apr-21 20:28N 33°44' W 118°16'0 0.0
2017-Apr-21 20:00N 33°44' W 118°16'0 0.0
2017-Apr-21 19:30N 33°44' W 118°16'1 1.4
2017-Apr-21 19:00N 33°43' W 118°16'8 9.2
2017-Apr-21 18:07N 33°44' W 118°06'3 3.5
2017-Apr-21 17:12N 33°44' W 118°10'2 8.4
2017-Apr-21 16:57N 33°44' W 118°12'3 6.1
2017-Apr-21 16:28N 33°44' W 118°16'0 0.0
2017-Apr-21 15:51N 33°44' W 118°16'0 0.0
2017-Apr-21 15:30N 33°44' W 118°16'0 0.0
2017-Apr-21 15:00N 33°44' W 118°16'0 0.0
2017-Apr-21 14:28N 33°44' W 118°16'0 0.0
2017-Apr-21 13:30N 33°44' W 118°16'0 0.0
2017-Apr-21 13:00N 33°44' W 118°16'0 0.0
2017-Apr-21 12:19N 33°44' W 118°16'0 0.0
2017-Apr-21 11:59N 33°44' W 118°16'0 0.0
2017-Apr-21 11:30N 33°44' W 118°16'0 0.0
2017-Apr-21 11:00N 33°44' W 118°16'0 0.0
2017-Apr-21 10:30N 33°44' W 118°16'0 0.0
2017-Apr-21 10:00N 33°44' W 118°16'0 0.0
2017-Apr-21 09:30N 33°44' W 118°16'0 0.0
2017-Apr-21 08:07N 33°44' W 118°16'0 0.0
2017-Apr-21 08:00N 33°44' W 118°16'0 0.0
2017-Apr-21 07:30N 33°44' W 118°16'0 0.0
2017-Apr-21 07:00N 33°44' W 118°16'0 0.0
2017-Apr-21 06:28N 33°44' W 118°16'0 0.0
2017-Apr-21 05:59N 33°44' W 118°16'0 0.0
2017-Apr-21 05:28N 33°44' W 118°16'0 0.0
2017-Apr-21 05:00N 33°44' W 118°16'0 0.0
2017-Apr-21 04:30N 33°44' W 118°16'0 0.0
2017-Apr-21 03:35N 33°44' W 118°16'0 0.0
2017-Apr-21 03:27N 33°44' W 118°16'0 0.0
2017-Apr-21 03:00N 33°44' W 118°16'0 0.0
2017-Apr-21 02:30N 33°44' W 118°16'2 3.2
2017-Apr-21 02:00N 33°45' W 118°16'1 1.9
2017-Apr-21 01:28N 33°45' W 118°17'2 5.2
2017-Apr-21 01:01N 33°43' W 118°15'0 0.4
2017-Apr-21 00:30N 33°43' W 118°15'1 2.5
2017-Apr-21 00:00N 33°44' W 118°16'0 0.0
2017-Apr-20 23:30N 33°44' W 118°16'0 0.0
2017-Apr-20 23:00N 33°44' W 118°16'0 0.0
2017-Apr-20 22:30N 33°44' W 118°16'0 0.0
2017-Apr-20 22:00N 33°44' W 118°16'0 0.0
2017-Apr-20 21:20N 33°44' W 118°16'0 0.0
2017-Apr-20 20:59N 33°44' W 118°16'0 0.0
2017-Apr-20 20:30N 33°44' W 118°16'0 0.0
2017-Apr-20 20:00N 33°44' W 118°16'  
Track history (hours):
 
Tides and Currents Weather Stations Pressure Air Temp Water Temp Dewpoint Dewpoint Depression Visibility Wind Speed Wind Dir Waves Ship Positions

John Quigg

Owner: Harley Marine Services, Inc, Seattle, WA. More information available from US FCC via Universal Licensing System and Coast Guard Vessel Documentation Center.

Last reported at 2017-Apr-30 19:41 UTC. Time now 2017-Apr-30 20:51 UTC.
Position N 33°44' W 118°16'.

Length 27 m.

MMSI: 365934954.

Date/timePositionNaut miles runAvg speedWind from/ knotsBaromVisibWave heightAir tempDewpointWater temp
2017-Apr-30 19:41N 33°44' W 118°16'0 0.0
2017-Apr-30 19:29N 33°44' W 118°16'0 0.0
2017-Apr-30 18:41N 33°44' W 118°16'0 0.0
2017-Apr-30 18:29N 33°44' W 118°16'0 0.0
2017-Apr-30 17:57N 33°44' W 118°16'0 0.0
2017-Apr-30 17:30N 33°44' W 118°16'0 0.0
2017-Apr-30 15:22N 33°44' W 118°16'0 0.0
2017-Apr-30 14:59N 33°44' W 118°16'0 0.0
2017-Apr-30 14:25N 33°44' W 118°16'0 0.0
2017-Apr-30 13:30N 33°44' W 118°16'0 0.0
2017-Apr-30 12:59N 33°44' W 118°16'0 0.0
2017-Apr-30 12:30N 33°44' W 118°16'0 0.6
2017-Apr-30 12:00N 33°44' W 118°15'1 1.2
2017-Apr-30 11:30N 33°43' W 118°16'1 2.1
2017-Apr-30 11:00N 33°43' W 118°15'1 2.7
2017-Apr-30 10:30N 33°44' W 118°16'0 0.0
2017-Apr-30 10:00N 33°44' W 118°16'0 0.0
2017-Apr-30 09:30N 33°44' W 118°16'0 0.0
2017-Apr-30 09:00N 33°44' W 118°16'0 0.0
2017-Apr-30 08:30N 33°44' W 118°16'0 0.0
2017-Apr-30 08:00N 33°44' W 118°16'0 0.0
2017-Apr-30 07:30N 33°44' W 118°16'0 0.0
2017-Apr-30 07:00N 33°44' W 118°16'0 0.0
2017-Apr-30 06:30N 33°44' W 118°16'0 0.0
2017-Apr-30 06:00N 33°44' W 118°16'0 0.0
2017-Apr-30 05:29N 33°44' W 118°16'0 0.0
2017-Apr-30 04:59N 33°44' W 118°16'0 0.0
2017-Apr-30 04:28N 33°44' W 118°16'0 0.0
2017-Apr-30 02:52N 33°44' W 118°16'0 0.0
2017-Apr-30 02:30N 33°44' W 118°16'0 0.0
2017-Apr-30 02:00N 33°44' W 118°16'3 4.3
2017-Apr-30 01:25N 33°44' W 118°13'3 5.5
2017-Apr-30 00:57N 33°44' W 118°16'0 0.0
2017-Apr-28 09:42N 33°44' W 118°16'0 0.0
2017-Apr-28 09:24N 33°44' W 118°16'0 0.0
2017-Apr-28 09:00N 33°44' W 118°16'0 0.0
2017-Apr-28 08:30N 33°44' W 118°16'0 0.0
2017-Apr-28 08:00N 33°44' W 118°16'0 0.0
2017-Apr-28 07:23N 33°44' W 118°16'0 0.0
2017-Apr-28 07:00N 33°44' W 118°16'0 0.0
2017-Apr-28 06:29N 33°44' W 118°16'0 0.0
2017-Apr-28 05:59N 33°44' W 118°16'0 0.0
2017-Apr-28 05:05N 33°44' W 118°16'0 0.1
2017-Apr-28 05:00N 33°44' W 118°16'0 0.0
2017-Apr-28 03:50N 33°44' W 118°16'0 0.0
2017-Apr-28 03:29N 33°44' W 118°16'0 0.0
2017-Apr-28 02:59N 33°44' W 118°16'0 0.0
2017-Apr-28 02:25N 33°44' W 118°16'0 0.0
2017-Apr-28 01:50N 33°44' W 118°16'0 0.0
2017-Apr-28 01:27N 33°44' W 118°16'0 0.0
2017-Apr-28 01:00N 33°44' W 118°16'0 0.2
2017-Apr-28 00:29N 33°44' W 118°16'0 0.6
2017-Apr-27 23:52N 33°44' W 118°15'0 0.7
2017-Apr-27 23:14N 33°44' W 118°16'0 0.0
2017-Apr-27 23:00N 33°44' W 118°16'3 0.2
2017-Apr-27 07:10N 33°45' W 118°13'0 0.0
2017-Apr-27 06:59N 33°45' W 118°13'1 1.6
2017-Apr-27 06:27N 33°45' W 118°13'2 4.1
2017-Apr-27 06:00N 33°43' W 118°11'0 0.4
2017-Apr-27 05:28N 33°44' W 118°11'4 3.5
2017-Apr-27 04:28N 33°44' W 118°16'0 0.3
2017-Apr-27 04:00N 33°44' W 118°16'0 0.0
2017-Apr-27 03:30N 33°44' W 118°16'0 0.0
2017-Apr-27 03:00N 33°44' W 118°16'0 0.0
2017-Apr-27 02:02N 33°44' W 118°16'0 0.0
2017-Apr-27 01:53N 33°44' W 118°16'0 0.0
2017-Apr-27 01:30N 33°44' W 118°16'0 0.0
2017-Apr-27 01:00N 33°44' W 118°16'0 0.0
2017-Apr-27 00:30N 33°44' W 118°16'0 0.0
2017-Apr-27 00:00N 33°44' W 118°16'1 2.3
2017-Apr-26 23:29N 33°45' W 118°16'1 1.5
2017-Apr-26 22:58N 33°46' W 118°16'2 4.5
2017-Apr-26 22:30N 33°43' W 118°16'1 2.9
2017-Apr-26 22:00N 33°43' W 118°15'1 2.3
2017-Apr-26 21:25N 33°44' W 118°16'0 0.0
2017-Apr-26 21:00N 33°44' W 118°16'0 0.0
2017-Apr-26 20:29N 33°44' W 118°16'0 0.0
2017-Apr-26 19:56N 33°44' W 118°16'0 0.0
2017-Apr-26 19:30N 33°44' W 118°16'0 0.0
2017-Apr-26 19:00N 33°44' W 118°16'0 0.0
2017-Apr-26 18:25N 33°44' W 118°16'0 0.0
2017-Apr-26 17:51N 33°44' W 118°16'0 0.0
2017-Apr-26 17:30N 33°44' W 118°16'0 0.0
2017-Apr-26 16:41N 33°44' W 118°16'0 0.0
2017-Apr-26 15:22N 33°44' W 118°16'0 0.0
2017-Apr-26 14:07N 33°44' W 118°16'3 2.4
2017-Apr-26 12:41N 33°44' W 118°12'0 0.8
2017-Apr-26 12:26N 33°44' W 118°12'0 0.1
2017-Apr-26 11:59N 33°44' W 118°12'3 1.5
2017-Apr-26 09:39N 33°44' W 118°16'0 0.0
2017-Apr-26 09:29N 33°44' W 118°16'0 0.0
2017-Apr-26 09:00N 33°44' W 118°16'0 0.0
2017-Apr-26 08:10N 33°44' W 118°16'0 0.0
2017-Apr-26 05:54N 33°44' W 118°16'0 0.0
2017-Apr-26 05:19N 33°44' W 118°16'0 0.0
2017-Apr-26 04:49N 33°44' W 118°16'0 0.0
2017-Apr-26 01:20N 33°44' W 118°16'0 0.0
2017-Apr-26 00:54N 33°44' W 118°16'0 0.0
2017-Apr-26 00:30N 33°44' W 118°16'0 0.0
2017-Apr-26 00:00N 33°44' W 118°16'0 0.0
2017-Apr-25 23:30N 33°44' W 118°16'0 0.0
2017-Apr-25 23:00N 33°44' W 118°16'0 0.0
2017-Apr-25 22:30N 33°44' W 118°16'0 0.0
2017-Apr-25 22:00N 33°44' W 118°16'0 0.0
2017-Apr-25 21:30N 33°44' W 118°16'0 0.0
2017-Apr-25 21:00N 33°44' W 118°16'0 0.0
2017-Apr-25 20:29N 33°44' W 118°16'0 0.0
2017-Apr-25 20:00N 33°44' W 118°16'0 0.0
2017-Apr-25 19:29N 33°44' W 118°16'0 0.0
2017-Apr-25 03:34N 33°44' W 118°16'0 0.0
2017-Apr-25 03:22N 33°44' W 118°16'0 0.0
2017-Apr-24 03:28N 33°44' W 118°16'0 0.0
2017-Apr-24 03:00N 33°44' W 118°16'0 0.0
2017-Apr-24 02:28N 33°44' W 118°16'0 0.0
2017-Apr-24 01:42N 33°44' W 118°16'0 0.0
2017-Apr-24 01:30N 33°44' W 118°16'1 1.1
2017-Apr-24 01:00N 33°43' W 118°16'1 1.4
2017-Apr-24 00:30N 33°44' W 118°15'0 0.6
2017-Apr-24 00:00N 33°44' W 118°16'0 0.0
2017-Apr-23 23:30N 33°44' W 118°16'0 0.0
2017-Apr-23 23:00N 33°44' W 118°16'0 0.0
2017-Apr-23 22:26N 33°44' W 118°16'0 0.0
2017-Apr-23 21:23N 33°44' W 118°16'0 0.0
2017-Apr-23 19:05N 33°44' W 118°16'0 0.0
2017-Apr-23 19:00N 33°44' W 118°16'0 0.0
2017-Apr-23 18:21N 33°44' W 118°16'0 0.0
2017-Apr-23 17:04N 33°44' W 118°16'0 0.0
2017-Apr-23 17:00N 33°44' W 118°16'0 0.0
2017-Apr-23 16:28N 33°44' W 118°16'0 0.0
2017-Apr-23 15:53N 33°44' W 118°16'0 0.0
2017-Apr-23 15:30N 33°44' W 118°16'0 0.0
2017-Apr-23 14:57N 33°44' W 118°16'0 0.0
2017-Apr-23 14:00N 33°44' W 118°16'0 0.0
2017-Apr-23 13:30N 33°44' W 118°16'0 0.0
2017-Apr-23 12:58N 33°44' W 118°16'0 0.0
2017-Apr-23 12:30N 33°44' W 118°16'0 0.0
2017-Apr-23 11:57N 33°44' W 118°16'0 0.0
2017-Apr-23 11:30N 33°44' W 118°16'0 0.0
2017-Apr-23 10:47N 33°44' W 118°16'0 0.0
2017-Apr-23 10:30N 33°44' W 118°16'0 0.0
2017-Apr-23 10:00N 33°44' W 118°16'0 0.0
2017-Apr-23 09:30N 33°44' W 118°16'0 0.0
2017-Apr-23 09:00N 33°44' W 118°16'0 0.0
2017-Apr-23 08:30N 33°44' W 118°16'0 0.0
2017-Apr-23 08:00N 33°44' W 118°16'0 0.0
2017-Apr-23 07:30N 33°44' W 118°16'0 0.0
2017-Apr-23 07:00N 33°44' W 118°16'0 0.0
2017-Apr-23 06:30N 33°44' W 118°16'0 0.0
2017-Apr-23 06:00N 33°44' W 118°16'0 0.0
2017-Apr-23 05:30N 33°44' W 118°16'0 0.0
2017-Apr-23 05:00N 33°44' W 118°16'0 0.0
2017-Apr-23 04:30N 33°44' W 118°16'0 0.0
2017-Apr-23 04:00N 33°44' W 118°16'0 0.0
2017-Apr-23 03:30N 33°44' W 118°16'0 0.0
2017-Apr-23 03:00N 33°44' W 118°16'0 0.0
2017-Apr-23 02:30N 33°44' W 118°16'0 0.0
2017-Apr-23 02:00N 33°44' W 118°16'0 0.0
2017-Apr-23 01:30N 33°44' W 118°16'0 0.0
2017-Apr-23 01:00N 33°44' W 118°16'0 0.0
2017-Apr-23 00:30N 33°44' W 118°16'0 0.0
2017-Apr-23 00:00N 33°44' W 118°16'0 0.0
2017-Apr-22 23:30N 33°44' W 118°16'0 0.0
2017-Apr-22 23:00N 33°44' W 118°16'0 0.0
2017-Apr-22 22:30N 33°44' W 118°16'0 0.0
2017-Apr-22 22:00N 33°44' W 118°16'0 0.0
2017-Apr-22 21:30N 33°44' W 118°16'0 0.0
2017-Apr-22 21:00N 33°44' W 118°16'0 0.0
2017-Apr-22 20:30N 33°44' W 118°16'0 0.0
2017-Apr-22 20:00N 33°44' W 118°16'0 0.0
2017-Apr-22 19:30N 33°44' W 118°16'0 0.0
2017-Apr-22 19:00N 33°44' W 118°16'0 0.0
2017-Apr-22 18:30N 33°44' W 118°16'0 0.0
2017-Apr-22 18:00N 33°44' W 118°16'0 0.0
2017-Apr-22 17:30N 33°44' W 118°16'0 0.0
2017-Apr-22 17:00N 33°44' W 118°16'0 0.0
2017-Apr-22 16:30N 33°44' W 118°16'0 0.0
2017-Apr-22 16:00N 33°44' W 118°16'0 0.0
2017-Apr-22 15:30N 33°44' W 118°16'0 0.0
2017-Apr-22 15:00N 33°44' W 118°16'1 1.3
2017-Apr-22 14:30N 33°44' W 118°16'2 1.6
2017-Apr-22 13:30N 33°45' W 118°16'0 0.5
2017-Apr-22 13:00N 33°45' W 118°16'2 3.4
2017-Apr-22 12:30N 33°43' W 118°16'2 4.0
2017-Apr-22 12:00N 33°45' W 118°16'0 0.2
2017-Apr-22 11:30N 33°45' W 118°16'1 1.9
2017-Apr-22 11:00N 33°45' W 118°16'1 2.0
2017-Apr-22 10:30N 33°44' W 118°16'0 0.0
2017-Apr-22 10:00N 33°44' W 118°16'0 0.0
2017-Apr-22 09:30N 33°44' W 118°16'0 0.0
2017-Apr-22 09:00N 33°44' W 118°16'0 0.0
2017-Apr-22 08:30N 33°44' W 118°16'0 0.0
2017-Apr-22 07:51N 33°44' W 118°16'0 0.0
2017-Apr-22 07:30N 33°44' W 118°16'0 0.0
2017-Apr-22 07:00N 33°44' W 118°16'0 0.0
2017-Apr-22 06:30N 33°44' W 118°16'0 0.0
2017-Apr-22 06:00N 33°44' W 118°16'0 0.0
2017-Apr-22 05:30N 33°44' W 118°16'0 0.0
2017-Apr-22 05:00N 33°44' W 118°16'0 0.0
2017-Apr-22 04:30N 33°44' W 118°16'0 0.0
2017-Apr-22 04:00N 33°44' W 118°16'0 0.0
2017-Apr-22 03:29N 33°44' W 118°16'0 0.0
2017-Apr-22 02:42N 33°44' W 118°16'0 0.0
2017-Apr-22 02:25N 33°44' W 118°16'0 0.0
2017-Apr-22 02:00N 33°44' W 118°16'1 2.4
2017-Apr-22 01:30N 33°45' W 118°16'0 0.9
2017-Apr-22 00:59N 33°45' W 118°16'0 0.6
2017-Apr-22 00:30N 33°45' W 118°16'0 0.1
2017-Apr-21 21:43N 33°45' W 118°16'1 4.8
2017-Apr-21 21:30N 33°44' W 118°16'2 3.6
2017-Apr-21 21:00N 33°43' W 118°15'1 2.6
2017-Apr-21 20:28N 33°44' W 118°16'0 0.0
2017-Apr-21 20:00N 33°44' W 118°16'0 0.0
2017-Apr-21 19:30N 33°44' W 118°16'1 1.4
2017-Apr-21 19:00N 33°43' W 118°16'8 9.2
2017-Apr-21 18:07N 33°44' W 118°06'3 3.5
2017-Apr-21 17:12N 33°44' W 118°10'2 8.4
2017-Apr-21 16:57N 33°44' W 118°12'3 6.1
2017-Apr-21 16:28N 33°44' W 118°16'0 0.0
2017-Apr-21 15:51N 33°44' W 118°16'0 0.0
2017-Apr-21 15:30N 33°44' W 118°16'0 0.0
2017-Apr-21 15:00N 33°44' W 118°16'0 0.0
2017-Apr-21 14:28N 33°44' W 118°16'0 0.0
2017-Apr-21 13:30N 33°44' W 118°16'0 0.0
2017-Apr-21 13:00N 33°44' W 118°16'0 0.0
2017-Apr-21 12:19N 33°44' W 118°16'0 0.0
2017-Apr-21 11:59N 33°44' W 118°16'0 0.0
2017-Apr-21 11:30N 33°44' W 118°16'0 0.0
2017-Apr-21 11:00N 33°44' W 118°16'0 0.0
2017-Apr-21 10:30N 33°44' W 118°16'0 0.0
2017-Apr-21 10:00N 33°44' W 118°16'0 0.0
2017-Apr-21 09:30N 33°44' W 118°16'0 0.0
2017-Apr-21 08:07N 33°44' W 118°16'0 0.0
2017-Apr-21 08:00N 33°44' W 118°16'0 0.0
2017-Apr-21 07:30N 33°44' W 118°16'0 0.0
2017-Apr-21 07:00N 33°44' W 118°16'0 0.0
2017-Apr-21 06:28N 33°44' W 118°16'0 0.0
2017-Apr-21 05:59N 33°44' W 118°16'0 0.0
2017-Apr-21 05:28N 33°44' W 118°16'0 0.0
2017-Apr-21 05:00N 33°44' W 118°16'0 0.0
2017-Apr-21 04:30N 33°44' W 118°16'0 0.0
2017-Apr-21 03:35N 33°44' W 118°16'0 0.0
2017-Apr-21 03:27N 33°44' W 118°16'0 0.0
2017-Apr-21 03:00N 33°44' W 118°16'0 0.0
2017-Apr-21 02:30N 33°44' W 118°16'2 3.2
2017-Apr-21 02:00N 33°45' W 118°16'1 1.9
2017-Apr-21 01:28N 33°45' W 118°17'2 5.2
2017-Apr-21 01:01N 33°43' W 118°15'0 0.4
2017-Apr-21 00:30N 33°43' W 118°15'1 2.5
2017-Apr-21 00:00N 33°44' W 118°16'0 0.0
2017-Apr-20 23:30N 33°44' W 118°16'0 0.0
2017-Apr-20 23:00N 33°44' W 118°16'0 0.0
2017-Apr-20 22:30N 33°44' W 118°16'0 0.0
2017-Apr-20 22:00N 33°44' W 118°16'0 0.0
2017-Apr-20 21:20N 33°44' W 118°16'0 0.0
2017-Apr-20 20:59N 33°44' W 118°16'0 0.0
2017-Apr-20 20:30N 33°44' W 118°16'0 0.0
2017-Apr-20 20:00N 33°44' W 118°16'  

Dump ship's entire track history